createdAt,value
2022-09-22T00:01:14.400Z,4.47
2022-09-22T00:03:43.196Z,5.70
2022-09-22T00:06:30.024Z,6.10
2022-09-22T00:09:00.747Z,6.47
2022-09-22T00:11:29.722Z,6.47
2022-09-22T00:13:59.898Z,8.53
2022-09-22T00:16:36.633Z,7.97
2022-09-22T00:19:07.906Z,5.53
2022-09-22T00:21:35.426Z,5.80
2022-09-22T00:24:04.372Z,5.97
2022-09-22T00:26:31.800Z,5.83
2022-09-22T00:29:01.115Z,5.30
2022-09-22T00:31:29.972Z,7.93
2022-09-22T00:33:57.608Z,6.23
2022-09-22T00:36:26.113Z,5.80
2022-09-22T00:38:54.145Z,5.17
2022-09-22T00:41:23.882Z,6.63
2022-09-22T00:44:11.521Z,6.73
2022-09-22T00:46:41.215Z,5.20
2022-09-22T00:49:09.278Z,5.67
2022-09-22T00:51:38.551Z,6.73
2022-09-22T00:54:07.630Z,8.27
2022-09-22T00:56:41.131Z,6.57
2022-09-22T00:59:10.239Z,8.13
2022-09-22T01:01:39.459Z,7.80
2022-09-22T01:04:07.741Z,9.30
2022-09-22T01:06:36.510Z,7.83
2022-09-22T01:09:04.674Z,7.27
2022-09-22T01:11:33.082Z,7.57
2022-09-22T01:14:15.807Z,7.93
2022-09-22T01:16:48.889Z,8.67
2022-09-22T01:19:21.376Z,8.57
2022-09-22T01:21:51.845Z,9.07
2022-09-22T01:24:29.589Z,7.30
2022-09-22T01:26:57.086Z,7.87
2022-09-22T01:29:43.486Z,6.93
2022-09-22T01:32:13.951Z,7.03
2022-09-22T01:34:57.344Z,7.77
2022-09-22T01:37:27.438Z,8.07
2022-09-22T01:40:06.449Z,8.30
2022-09-22T01:42:34.030Z,7.10
2022-09-22T01:45:06.392Z,6.73
2022-09-22T01:47:40.782Z,5.80
2022-09-22T01:50:16.145Z,6.73
2022-09-22T01:52:44.508Z,8.20
2022-09-22T01:55:14.173Z,6.90
2022-09-22T01:58:01.929Z,6.57
2022-09-22T02:00:29.400Z,7.70
2022-09-22T02:02:56.863Z,7.50
2022-09-22T02:05:31.061Z,6.07
2022-09-22T02:07:59.869Z,6.83
2022-09-22T02:10:32.494Z,7.20
2022-09-22T02:13:00.951Z,6.03
2022-09-22T02:15:47.177Z,6.13
2022-09-22T02:18:18.663Z,7.00
2022-09-22T02:20:46.411Z,7.87
2022-09-22T02:23:13.975Z,6.70
2022-09-22T02:25:42.283Z,6.87
2022-09-22T02:28:10.334Z,8.43
2022-09-22T02:30:37.839Z,6.60
2022-09-22T02:33:06.453Z,8.40
2022-09-22T02:35:36.124Z,6.37
2022-09-22T02:38:11.030Z,7.13
2022-09-22T02:40:47.743Z,6.30
2022-09-22T02:43:18.010Z,6.83
2022-09-22T02:45:57.898Z,8.23
2022-09-22T02:48:27.283Z,6.60
2022-09-22T02:50:55.068Z,6.40
2022-09-22T02:53:22.506Z,5.93
2022-09-22T02:55:50.063Z,6.50
2022-09-22T02:58:17.867Z,5.53
2022-09-22T03:00:45.918Z,6.77
2022-09-22T03:03:13.646Z,8.27
2022-09-22T03:05:41.123Z,6.03
2022-09-22T03:08:08.650Z,6.07
2022-09-22T03:10:36.079Z,6.53
2022-09-22T03:13:15.883Z,6.33
2022-09-22T03:15:44.040Z,6.60
2022-09-22T03:18:11.624Z,6.43
2022-09-22T03:20:39.021Z,6.30
2022-09-22T03:23:06.570Z,6.13
2022-09-22T03:25:34.113Z,6.30
2022-09-22T03:28:01.616Z,6.67
2022-09-22T03:30:29.071Z,5.97
2022-09-22T03:32:56.694Z,6.00
2022-09-22T03:35:24.159Z,6.40
2022-09-22T03:37:51.604Z,6.00
2022-09-22T03:40:19.087Z,5.80
2022-09-22T03:42:46.616Z,6.80
2022-09-22T03:45:15.080Z,6.53
2022-09-22T03:47:42.561Z,5.90
2022-09-22T03:50:10.315Z,5.83
2022-09-22T03:52:40.201Z,5.70
2022-09-22T03:55:08.467Z,5.90
2022-09-22T03:57:35.859Z,6.10
2022-09-22T04:00:03.817Z,5.70
2022-09-22T04:02:39.437Z,5.33
2022-09-22T04:05:07.209Z,5.77
2022-09-22T04:07:34.690Z,6.80
2022-09-22T04:10:02.256Z,5.30
2022-09-22T04:12:30.100Z,6.50
2022-09-22T04:15:01.357Z,6.10
2022-09-22T04:17:28.796Z,5.47
2022-09-22T04:19:56.737Z,5.77
2022-09-22T04:22:24.273Z,5.73
2022-09-22T04:24:51.820Z,7.03
2022-09-22T04:27:20.696Z,5.60
2022-09-22T04:29:48.807Z,6.20
2022-09-22T04:32:16.865Z,8.37
2022-09-22T04:34:44.334Z,7.83
2022-09-22T04:37:12.556Z,6.30
2022-09-22T04:39:40.054Z,6.27
2022-09-22T04:42:09.223Z,6.40
2022-09-22T04:44:36.811Z,6.50
2022-09-22T04:47:04.988Z,7.00
2022-09-22T04:49:32.475Z,8.47
2022-09-22T04:51:59.881Z,5.67
2022-09-22T04:54:27.335Z,5.80
2022-09-22T04:56:54.958Z,6.27
2022-09-22T04:59:22.445Z,6.47
2022-09-22T05:01:49.884Z,6.47
2022-09-22T05:04:18.294Z,6.47
2022-09-22T05:06:45.821Z,5.90
2022-09-22T05:09:13.470Z,6.63
2022-09-22T05:11:41.077Z,6.60
2022-09-22T05:14:08.550Z,5.70
2022-09-22T05:16:36.800Z,6.40
2022-09-22T05:19:04.304Z,6.27
2022-09-22T05:21:31.986Z,6.47
2022-09-22T05:23:59.537Z,6.50
2022-09-22T05:26:27.288Z,6.80
2022-09-22T05:28:54.784Z,6.97
2022-09-22T05:31:22.326Z,7.17
2022-09-22T05:33:49.968Z,6.50
2022-09-22T05:36:17.600Z,6.27
2022-09-22T05:38:45.023Z,6.30
2022-09-22T05:41:12.488Z,7.27
2022-09-22T05:43:39.906Z,6.67
2022-09-22T05:46:07.416Z,7.47
2022-09-22T05:48:34.931Z,6.90
2022-09-22T05:51:02.371Z,6.77
2022-09-22T05:53:29.828Z,6.93
2022-09-22T05:55:57.558Z,7.50
2022-09-22T05:58:25.023Z,7.93
2022-09-22T06:00:52.687Z,7.70
2022-09-22T06:03:20.168Z,8.40
2022-09-22T06:05:47.676Z,7.53
2022-09-22T06:08:15.206Z,7.33
2022-09-22T06:10:42.699Z,8.10
2022-09-22T06:13:11.170Z,7.50
2022-09-22T06:15:39.767Z,9.73
2022-09-22T06:18:11.999Z,7.97
2022-09-22T06:20:41.098Z,7.93
2022-09-22T06:23:09.139Z,7.17
2022-09-22T06:25:36.576Z,7.90
2022-09-22T06:28:06.004Z,7.63
2022-09-22T06:30:34.301Z,7.20
2022-09-22T06:33:03.112Z,6.90
2022-09-22T06:35:35.459Z,6.37
2022-09-22T06:38:03.061Z,7.37
2022-09-22T06:40:32.340Z,7.43
2022-09-22T06:43:07.609Z,6.60
2022-09-22T06:45:35.286Z,7.70
2022-09-22T06:48:07.558Z,7.40
2022-09-22T06:50:38.666Z,9.07
2022-09-22T06:53:11.328Z,7.83
2022-09-22T06:55:41.713Z,7.23
2022-09-22T06:58:09.590Z,7.37
2022-09-22T07:00:37.275Z,9.27
2022-09-22T07:03:14.003Z,8.10
2022-09-22T07:05:43.517Z,7.97
2022-09-22T07:08:10.943Z,7.50
2022-09-22T07:10:38.445Z,10.03
2022-09-22T07:13:06.267Z,7.17
2022-09-22T07:15:36.174Z,9.07
2022-09-22T07:18:04.625Z,7.60
2022-09-22T07:20:33.755Z,6.90
2022-09-22T07:23:01.196Z,7.47
2022-09-22T07:25:29.542Z,7.40
2022-09-22T07:27:57.874Z,7.80
2022-09-22T07:30:26.363Z,7.30
2022-09-22T07:32:53.803Z,7.30
2022-09-22T07:35:21.339Z,8.20
2022-09-22T07:37:50.869Z,8.57
2022-09-22T07:40:18.338Z,7.83
2022-09-22T07:42:49.579Z,9.53
2022-09-22T07:45:16.987Z,8.17
2022-09-22T07:48:03.463Z,8.50
2022-09-22T07:50:31.291Z,7.93
2022-09-22T07:52:58.756Z,8.03
2022-09-22T07:55:26.260Z,8.23
2022-09-22T07:57:55.302Z,8.53
2022-09-22T08:00:23.718Z,8.10
2022-09-22T08:02:54.367Z,8.00
2022-09-22T08:05:22.829Z,8.07
2022-09-22T08:07:50.344Z,9.43
2022-09-22T08:10:18.804Z,8.97
2022-09-22T08:12:46.488Z,8.30
2022-09-22T08:15:13.925Z,8.17
2022-09-22T08:17:41.420Z,7.87
2022-09-22T08:20:09.137Z,9.87
2022-09-22T08:22:36.841Z,8.67
2022-09-22T08:25:04.384Z,10.93
2022-09-22T08:27:32.215Z,8.87
2022-09-22T08:29:59.900Z,8.07
2022-09-22T08:32:30.457Z,10.00
2022-09-22T08:34:58.987Z,7.83
2022-09-22T08:37:27.425Z,8.40
2022-09-22T08:39:55.004Z,7.77
2022-09-22T08:42:23.401Z,8.90
2022-09-22T08:45:07.034Z,7.77
2022-09-22T08:48:00.313Z,7.63
2022-09-22T08:51:04.962Z,7.97
2022-09-22T08:53:34.916Z,8.87
2022-09-22T08:56:07.104Z,6.33
2022-09-22T08:58:35.147Z,7.33
2022-09-22T09:01:20.824Z,7.20
2022-09-22T09:03:54.999Z,8.47
2022-09-22T09:06:25.189Z,7.03
2022-09-22T09:08:55.845Z,6.80
2022-09-22T09:11:26.486Z,7.53
2022-09-22T09:13:56.845Z,8.03
2022-09-22T09:16:45.654Z,7.60
2022-09-22T09:19:21.288Z,6.90
2022-09-22T09:21:54.621Z,7.13
2022-09-22T09:27:20.278Z,7.57
2022-09-22T09:29:47.762Z,7.60
2022-09-22T09:32:26.094Z,6.43
2022-09-22T09:34:55.824Z,6.60
2022-09-22T09:37:24.485Z,8.10
2022-09-22T09:39:52.175Z,6.97
2022-09-22T09:42:20.038Z,6.43
2022-09-22T09:44:53.514Z,6.80
2022-09-22T09:47:28.068Z,5.27
2022-09-22T09:49:55.772Z,6.17
2022-09-22T09:52:26.196Z,6.43
2022-09-22T09:54:54.524Z,4.73
2022-09-22T09:57:27.651Z,6.30
2022-09-22T10:00:33.381Z,6.20
2022-09-22T10:03:04.583Z,5.43
2022-09-22T10:05:33.594Z,6.93
2022-09-22T10:08:13.575Z,4.23
2022-09-22T10:10:41.496Z,6.20
2022-09-22T10:13:08.944Z,6.20
2022-09-22T10:15:37.885Z,6.90
2022-09-22T10:18:40.957Z,5.07
2022-09-22T10:21:17.391Z,4.30
2022-09-22T10:23:46.615Z,4.90
2022-09-22T10:26:26.647Z,4.60
2022-09-22T10:29:09.542Z,5.10
2022-09-22T10:31:40.114Z,5.03
2022-09-22T10:34:25.346Z,6.40
2022-09-22T10:36:52.928Z,7.67
2022-09-22T10:39:20.528Z,3.77
2022-09-22T10:41:49.477Z,7.07
2022-09-22T10:47:24.800Z,5.07
2022-09-22T10:49:57.031Z,4.97
2022-09-22T10:52:29.276Z,4.83
2022-09-22T10:54:59.509Z,5.20
2022-09-22T10:57:33.656Z,5.57
2022-09-22T11:00:19.168Z,4.13
2022-09-22T11:03:05.341Z,6.23
2022-09-22T11:06:09.922Z,5.07
2022-09-22T11:09:02.208Z,4.03
2022-09-22T11:11:58.974Z,5.40
2022-09-22T11:14:47.042Z,5.03
2022-09-22T11:17:31.383Z,3.03
2022-09-22T11:20:07.972Z,4.50
2022-09-22T11:22:53.687Z,5.00
2022-09-22T11:25:26.441Z,4.60
2022-09-22T11:28:08.178Z,5.20
2022-09-22T11:30:45.505Z,4.50
2022-09-22T11:33:27.080Z,4.23
2022-09-22T11:36:01.022Z,4.17
2022-09-22T11:38:37.203Z,4.13
2022-09-22T11:41:25.548Z,4.77
2022-09-22T11:44:11.581Z,3.67
2022-09-22T11:46:46.735Z,3.93
2022-09-22T11:49:28.096Z,3.80
2022-09-22T11:51:58.397Z,2.93
2022-09-22T11:54:35.656Z,4.90
2022-09-22T11:57:16.033Z,4.57
2022-09-22T11:59:52.609Z,5.17
2022-09-22T12:02:32.598Z,4.10
2022-09-22T12:05:02.674Z,3.53
2022-09-22T12:07:55.740Z,4.30
2022-09-22T12:10:31.673Z,3.73
2022-09-22T12:12:59.355Z,3.53
2022-09-22T12:15:29.007Z,3.33
2022-09-22T12:18:02.172Z,2.97
2022-09-22T12:20:45.941Z,4.03
2022-09-22T12:23:32.208Z,3.93
2022-09-22T12:26:02.756Z,5.07
2022-09-22T12:28:32.509Z,4.00
2022-09-22T12:31:18.980Z,5.50
2022-09-22T12:33:48.583Z,4.80
2022-09-22T12:36:17.070Z,3.70
2022-09-22T12:38:45.492Z,5.68
2022-09-22T12:41:18.225Z,3.83
2022-09-22T12:43:46.217Z,3.95
2022-09-22T12:46:18.772Z,4.68
2022-09-22T12:48:46.978Z,4.07
2022-09-22T12:51:17.582Z,4.72
2022-09-22T12:53:48.074Z,5.22
2022-09-22T12:56:34.503Z,4.03
2022-09-22T12:59:01.929Z,4.47
2022-09-22T13:01:32.260Z,5.43
2022-09-22T13:04:07.245Z,3.90
2022-09-22T13:06:34.722Z,2.70
2022-09-22T13:09:02.134Z,3.92
2022-09-22T13:11:48.567Z,3.80
2022-09-22T13:14:34.624Z,3.55
2022-09-22T13:17:22.063Z,2.70
2022-09-22T13:19:56.056Z,3.20
2022-09-22T13:22:23.520Z,4.07
2022-09-22T13:24:50.937Z,2.78
2022-09-22T13:27:18.408Z,4.28
2022-09-22T13:29:58.821Z,4.00
2022-09-22T13:32:28.081Z,2.92
2022-09-22T13:34:55.552Z,4.20
2022-09-22T13:37:24.474Z,4.40
2022-09-22T13:39:52.987Z,3.88
2022-09-22T13:42:25.140Z,3.50
2022-09-22T13:44:58.684Z,3.33
2022-09-22T13:47:28.166Z,4.78
2022-09-22T13:49:57.712Z,5.53
2022-09-22T13:52:30.059Z,3.60
2022-09-22T13:55:11.336Z,2.10
2022-09-22T13:57:39.376Z,4.63
2022-09-22T14:00:09.768Z,5.00
2022-09-22T14:02:44.687Z,3.45
2022-09-22T14:05:18.712Z,4.90
2022-09-22T14:08:07.813Z,3.28
2022-09-22T14:10:34.405Z,3.55
2022-09-22T14:13:01.896Z,4.18
2022-09-22T14:15:38.276Z,2.75
2022-09-22T14:18:18.748Z,3.22
2022-09-22T14:20:46.503Z,6.53
2022-09-22T14:23:34.226Z,3.65
2022-09-22T14:26:05.824Z,2.13
2022-09-22T14:28:36.230Z,2.85
2022-09-22T14:31:12.928Z,2.58
2022-09-22T14:33:41.344Z,3.20
2022-09-22T14:36:14.617Z,4.32
2022-09-22T14:38:48.207Z,3.25
2022-09-22T14:41:23.335Z,3.70
2022-09-22T14:43:51.117Z,3.33
2022-09-22T14:46:23.751Z,3.58
2022-09-22T14:48:51.437Z,3.42
2022-09-22T14:51:20.461Z,4.20
2022-09-22T14:53:49.448Z,4.88
2022-09-22T14:56:29.893Z,4.07
2022-09-22T14:58:58.689Z,3.15
2022-09-22T15:01:51.475Z,3.33
2022-09-22T15:04:22.987Z,3.75
2022-09-22T15:06:51.772Z,4.38
2022-09-22T15:09:27.638Z,3.40
2022-09-22T15:11:57.011Z,3.03
2022-09-22T15:14:27.159Z,3.20
2022-09-22T15:17:14.589Z,2.33
2022-09-22T15:19:42.020Z,3.50
2022-09-22T15:22:14.496Z,3.03
2022-09-22T15:24:41.965Z,5.18
2022-09-22T15:27:09.661Z,5.15
2022-09-22T15:29:37.876Z,5.70
2022-09-22T15:32:06.896Z,5.72
2022-09-22T15:34:34.759Z,3.25
2022-09-22T15:37:02.192Z,3.28
2022-09-22T15:39:29.802Z,3.60
2022-09-22T15:41:57.414Z,2.35
2022-09-22T15:44:24.899Z,3.90
2022-09-22T15:46:54.452Z,3.25
2022-09-22T15:49:26.437Z,2.88
2022-09-22T15:51:56.065Z,4.15
2022-09-22T15:54:24.324Z,2.97
2022-09-22T15:56:52.884Z,4.85
2022-09-22T15:59:22.814Z,4.18
2022-09-22T16:01:52.073Z,3.67
2022-09-22T16:04:20.262Z,4.57
2022-09-22T16:06:59.440Z,3.33
2022-09-22T16:09:27.016Z,4.90
2022-09-22T16:11:56.054Z,2.80
2022-09-22T16:14:23.566Z,3.45
2022-09-22T16:16:51.797Z,3.50
2022-09-22T16:19:20.399Z,4.35
2022-09-22T16:21:51.987Z,2.17
2022-09-22T16:24:19.486Z,5.00
2022-09-22T16:26:47.015Z,3.17
2022-09-22T16:29:14.499Z,4.50
2022-09-22T16:31:42.001Z,4.20
2022-09-22T16:34:09.789Z,4.63
2022-09-22T16:36:37.360Z,4.30
2022-09-22T16:39:05.555Z,4.10
2022-09-22T16:41:33.972Z,4.30
2022-09-22T16:44:02.132Z,4.90
2022-09-22T16:46:31.001Z,3.43
2022-09-22T16:49:09.951Z,3.87
2022-09-22T16:51:38.440Z,4.63
2022-09-22T16:54:07.593Z,3.97
2022-09-22T16:56:37.900Z,3.95
2022-09-22T16:59:05.679Z,4.83
2022-09-22T17:01:38.047Z,4.20
2022-09-22T17:04:06.582Z,3.70
2022-09-22T17:06:34.948Z,3.30
2022-09-22T17:09:02.641Z,3.07
2022-09-22T17:11:33.109Z,7.03
2022-09-22T17:14:24.453Z,5.00
2022-09-22T17:16:52.951Z,4.70
2022-09-22T17:19:21.441Z,3.73
2022-09-22T17:21:51.050Z,4.90
2022-09-22T17:24:19.436Z,2.97
2022-09-22T17:26:50.900Z,3.30
2022-09-22T17:29:25.246Z,3.33
2022-09-22T17:32:02.496Z,4.03
2022-09-22T17:34:31.599Z,4.80
2022-09-22T17:36:59.512Z,3.23
2022-09-22T17:39:27.868Z,3.70
2022-09-22T17:41:55.563Z,2.67
2022-09-22T17:44:23.152Z,4.77
2022-09-22T17:47:10.743Z,3.57
2022-09-22T17:49:57.532Z,3.27
2022-09-22T17:52:28.522Z,5.30
2022-09-22T17:55:09.316Z,3.50
2022-09-22T17:57:38.154Z,5.10
2022-09-22T18:00:06.921Z,4.03
2022-09-22T18:02:38.269Z,3.97
2022-09-22T18:05:06.429Z,3.83
2022-09-22T18:07:38.347Z,3.37
2022-09-22T18:10:06.910Z,4.93
2022-09-22T18:12:34.740Z,2.90
2022-09-22T18:15:04.135Z,4.20
2022-09-22T18:17:32.957Z,4.27
2022-09-22T18:20:00.683Z,3.33
2022-09-22T18:22:29.523Z,3.83
2022-09-22T18:24:57.142Z,4.97
2022-09-22T18:27:28.482Z,3.63
2022-09-22T18:29:58.806Z,5.23
2022-09-22T18:32:27.172Z,5.40
2022-09-22T18:34:55.327Z,8.00
2022-09-22T18:37:23.809Z,7.53
2022-09-22T18:39:51.392Z,5.77
2022-09-22T18:42:19.566Z,5.77
2022-09-22T18:44:47.327Z,7.30
2022-09-22T18:47:17.942Z,4.93
2022-09-22T18:49:51.362Z,5.97
2022-09-22T18:52:24.193Z,4.53
2022-09-22T18:54:53.301Z,5.60
2022-09-22T18:57:21.815Z,5.33
2022-09-22T18:59:51.243Z,5.57
2022-09-22T19:02:22.966Z,6.40
2022-09-22T19:04:54.515Z,5.37
2022-09-22T19:07:43.651Z,4.00
2022-09-22T19:10:15.906Z,4.80
2022-09-22T19:12:43.455Z,4.90
2022-09-22T19:15:13.713Z,6.10
2022-09-22T19:17:45.184Z,3.90
2022-09-22T19:20:23.373Z,5.80
2022-09-22T19:22:52.649Z,6.07
2022-09-22T19:25:21.883Z,5.20
2022-09-22T19:27:49.978Z,4.73
2022-09-22T19:30:21.882Z,6.23
2022-09-22T19:32:50.988Z,4.83
2022-09-22T19:35:19.555Z,5.43
2022-09-22T19:37:47.166Z,5.00
2022-09-22T19:40:18.672Z,5.27
2022-09-22T19:42:47.269Z,4.80
2022-09-22T19:45:14.894Z,4.67
2022-09-22T19:47:42.339Z,4.80
2022-09-22T19:50:09.879Z,5.20
2022-09-22T19:52:38.291Z,5.00
2022-09-22T19:55:10.215Z,5.77
2022-09-22T19:57:40.899Z,5.40
2022-09-22T20:00:09.662Z,5.80
2022-09-22T20:02:40.247Z,5.63
2022-09-22T20:05:17.199Z,4.73
2022-09-22T20:07:44.620Z,4.67
2022-09-22T20:10:13.339Z,3.63
2022-09-22T20:12:41.087Z,4.87
2022-09-22T20:15:08.822Z,7.13
2022-09-22T20:17:36.352Z,5.23
2022-09-22T20:20:03.976Z,5.63
2022-09-22T20:22:31.958Z,5.00
2022-09-22T20:25:01.558Z,5.40
2022-09-22T20:27:31.370Z,4.77
2022-09-22T20:29:59.200Z,5.37
2022-09-22T20:32:27.615Z,6.00
2022-09-22T20:34:55.852Z,8.07
2022-09-22T20:37:23.516Z,5.77
2022-09-22T20:39:51.132Z,4.60
2022-09-22T20:42:18.639Z,5.73
2022-09-22T20:44:46.979Z,5.90
2022-09-22T20:47:15.849Z,5.63
2022-09-22T20:49:45.824Z,5.83
2022-09-22T20:52:16.224Z,4.80
2022-09-22T20:54:44.313Z,6.47
2022-09-22T20:57:11.820Z,6.93
2022-09-22T20:59:39.923Z,7.57
2022-09-22T21:02:08.048Z,5.23
2022-09-22T21:04:35.591Z,4.97
2022-09-22T21:07:03.017Z,5.53
2022-09-22T21:09:48.976Z,5.07
2022-09-22T21:12:16.503Z,5.97
2022-09-22T21:14:45.232Z,6.10
2022-09-22T21:17:13.880Z,5.00
2022-09-22T21:19:41.562Z,5.97
2022-09-22T21:22:09.130Z,5.47
2022-09-22T21:24:36.571Z,7.40
2022-09-22T21:27:04.048Z,5.00
2022-09-22T21:29:31.493Z,6.20
2022-09-22T21:31:59.768Z,5.20
2022-09-22T21:34:27.798Z,5.60
2022-09-22T21:36:55.324Z,6.50
2022-09-22T21:39:22.812Z,5.90
2022-09-22T21:41:50.992Z,6.27
2022-09-22T21:44:18.635Z,7.77
2022-09-22T21:46:47.610Z,6.10
2022-09-22T21:49:15.137Z,6.37
2022-09-22T21:51:44.148Z,5.83
2022-09-22T21:54:13.338Z,6.20
2022-09-22T21:56:40.836Z,6.27
2022-09-22T21:59:08.546Z,6.87
2022-09-22T22:01:37.320Z,5.00
2022-09-22T22:04:08.181Z,5.77
2022-09-22T22:06:40.096Z,6.57
2022-09-22T22:09:14.639Z,5.43
2022-09-22T22:11:43.827Z,6.60
2022-09-22T22:14:12.676Z,6.53
2022-09-22T22:16:41.193Z,6.07
2022-09-22T22:19:09.794Z,6.27
2022-09-22T22:21:38.546Z,6.97
2022-09-22T22:24:28.686Z,6.43
2022-09-22T22:27:01.405Z,6.30
2022-09-22T22:29:34.782Z,6.83
2022-09-22T22:32:02.942Z,6.27
2022-09-22T22:34:30.386Z,7.43
2022-09-22T22:36:58.797Z,6.57
2022-09-22T22:39:26.540Z,6.40
2022-09-22T22:41:55.292Z,5.57
2022-09-22T22:44:23.088Z,6.27
2022-09-22T22:46:50.846Z,5.53
2022-09-22T22:49:18.301Z,7.13
2022-09-22T22:51:45.964Z,5.57
2022-09-22T22:54:14.630Z,6.67
2022-09-22T22:56:43.734Z,6.57
2022-09-22T22:59:12.573Z,6.33
2022-09-22T23:01:40.617Z,6.20
2022-09-22T23:04:09.007Z,6.97
2022-09-22T23:06:38.975Z,6.40
2022-09-22T23:09:07.501Z,6.37
2022-09-22T23:11:37.535Z,6.30
2022-09-22T23:14:06.248Z,6.03
2022-09-22T23:16:35.260Z,6.47
2022-09-22T23:19:03.398Z,6.93
2022-09-22T23:21:30.962Z,7.07
2022-09-22T23:23:58.450Z,7.03
2022-09-22T23:26:26.093Z,8.07
2022-09-22T23:28:54.019Z,7.50
2022-09-22T23:31:22.317Z,6.70
2022-09-22T23:33:50.447Z,7.07
2022-09-22T23:36:25.512Z,8.23
2022-09-22T23:38:56.896Z,6.77
2022-09-22T23:41:24.680Z,6.03
2022-09-22T23:43:52.235Z,5.70
2022-09-22T23:46:21.257Z,7.80
2022-09-22T23:48:48.812Z,6.67
2022-09-22T23:51:16.644Z,4.63
2022-09-22T23:53:44.188Z,6.03
2022-09-22T23:56:11.781Z,6.30
2022-09-22T23:58:39.388Z,6.13
